Time;durP1;ratioP1;P1;durP2;ratioP2;P2;SDS_P1;SDS_P2;PMS_P1;PMS_P2;Temp;Humidity;BMP_temperature;BMP_pressure;BME280_temperature;BME280_humidity;BME280_pressure;Samples;Min_cycle;Max_cycle;Signal;HPM_P1;HPM_P2
2023/06/05 00:02:13;;;;;;;;;;;;;;;13.61;52.06836;102532.8;;;;-68
2023/06/05 00:07:13;;;;;;;;;;;;;;;13.59;51.94336;102525.8;;;;-68
2023/06/05 00:07:31;;;;;;;0.2;0.1;;;;;;;;;;;;;-68
2023/06/05 00:12:14;;;;;;;;;;;;;;;13.55;51.84863;102533;;;;-69
2023/06/05 00:17:13;;;;;;;;;;;;;;;13.5;52.23633;102534.7;;;;-69
2023/06/05 00:22:13;;;;;;;;;;;;;;;13.46;51.82617;102526.2;;;;-69
2023/06/05 00:27:13;;;;;;;;;;;;;;;13.45;51.84766;102529.3;;;;-69
2023/06/05 00:32:13;;;;;;;;;;;;;;;13.39;52.29102;102525.4;;;;-69
2023/06/05 00:37:15;;;;;;;;;;;;;;;13.33;52.23926;102527.3;;;;-70
2023/06/05 00:37:33;;;;;;;0.2;0.1;;;;;;;;;;;;;-68
2023/06/05 00:42:14;;;;;;;;;;;;;;;13.35;52.18359;102530.1;;;;-67
2023/06/05 00:47:14;;;;;;;;;;;;;;;13.31;52.93164;102524.5;;;;-68
2023/06/05 00:52:14;;;;;;;;;;;;;;;13.3;52.62793;102526.3;;;;-68
2023/06/05 00:57:13;;;;;;;;;;;;;;;13.32;52.57422;102518.6;;;;-69
2023/06/05 01:02:14;;;;;;;;;;;;;;;13.26;52.38672;102518;;;;-70
2023/06/05 01:07:16;;;;;;;;;;;;;;;13.27;52.5;102516.8;;;;-68
2023/06/05 01:07:37;;;;;;;0.2;0;;;;;;;;;;;;;-69
2023/06/05 01:12:15;;;;;;;;;;;;;;;13.26;52.5;102517.3;;;;-66
2023/06/05 01:17:13;;;;;;;;;;;;;;;13.22;52.60645;102515;;;;-69
2023/06/05 01:22:13;;;;;;;;;;;;;;;13.22;52.4043;102514;;;;-68
2023/06/05 01:27:19;;;;;;;;;;;;;;;13.18;52.45605;102508.3;;;;-67
2023/06/05 01:32:16;;;;;;;;;;;;;;;13.23;52.5625;102501.3;;;;-67
2023/06/05 01:37:18;;;;;;;;;;;;;;;13.19;52.78418;102499;;;;-69
2023/06/05 01:37:40;;;;;;;0.2;0.1;;;;;;;;;;;;;-67
2023/06/05 01:42:14;;;;;;;;;;;;;;;13.18;52.60254;102497.4;;;;-69
2023/06/05 01:47:14;;;;;;;;;;;;;;;13.14;52.88867;102496.2;;;;-69
2023/06/05 01:52:13;;;;;;;;;;;;;;;13.09;53.06348;102490.8;;;;-68
2023/06/05 01:57:14;;;;;;;;;;;;;;;13.1;52.73828;102487.2;;;;-69
2023/06/05 02:02:14;;;;;;;;;;;;;;;13.12;52.9541;102483.4;;;;-69
2023/06/05 02:07:14;;;;;;;;;;;;;;;13.08;52.87109;102485.7;;;;-68
2023/06/05 02:07:39;;;;;;;0.2;0.1;;;;;;;;;;;;;-68
2023/06/05 02:12:15;;;;;;;;;;;;;;;13.08;52.51172;102481.4;;;;-69
2023/06/05 02:17:14;;;;;;;;;;;;;;;13.11;52.72852;102476.9;;;;-69
2023/06/05 02:22:16;;;;;;;;;;;;;;;13.08;52.73535;102478;;;;-69
2023/06/05 02:27:13;;;;;;;;;;;;;;;13.07;52.95898;102479.1;;;;-69
2023/06/05 02:32:13;;;;;;;;;;;;;;;13.11;52.62891;102476.5;;;;-69
2023/06/05 02:37:13;;;;;;;;;;;;;;;13.09;53.1748;102471.7;;;;-67
2023/06/05 02:37:43;;;;;;;0.2;0.1;;;;;;;;;;;;;-68
2023/06/05 02:42:13;;;;;;;;;;;;;;;13.13;52.91992;102477.3;;;;-68
2023/06/05 02:47:14;;;;;;;;;;;;;;;13.12;52.70703;102474;;;;-69
2023/06/05 02:52:13;;;;;;;;;;;;;;;13.13;53.01074;102473;;;;-69
2023/06/05 02:57:15;;;;;;;;;;;;;;;13.14;52.89941;102464.7;;;;-70
2023/06/05 03:02:14;;;;;;;;;;;;;;;13.17;52.98242;102468.3;;;;-70
2023/06/05 03:07:15;;;;;;;;;;;;;;;13.18;53.34277;102470.9;;;;-69
2023/06/05 03:07:42;;;;;;;0.2;0.1;;;;;;;;;;;;;-67
2023/06/05 03:12:14;;;;;;;;;;;;;;;13.2;53.2334;102466.3;;;;-67
2023/06/05 03:17:14;;;;;;;;;;;;;;;13.22;53.14551;102467.6;;;;-68
2023/06/05 03:22:16;;;;;;;;;;;;;;;13.25;53.12598;102464.8;;;;-69
2023/06/05 03:27:14;;;;;;;;;;;;;;;13.27;53.37695;102465.9;;;;-68
2023/06/05 03:32:15;;;;;;;;;;;;;;;13.28;53.08594;102462.2;;;;-69
2023/06/05 03:37:13;;;;;;;;;;;;;;;13.3;53.41309;102459.9;;;;-69
2023/06/05 03:37:43;;;;;;;0.2;0.1;;;;;;;;;;;;;-68
2023/06/05 03:42:14;;;;;;;;;;;;;;;13.31;53.45996;102457.9;;;;-69
2023/06/05 03:47:14;;;;;;;;;;;;;;;13.29;53.45703;102461.1;;;;-68
2023/06/05 03:52:14;;;;;;;;;;;;;;;13.36;54.02734;102463.8;;;;-68
2023/06/05 03:57:14;;;;;;;;;;;;;;;13.32;53.65137;102456.8;;;;-68
2023/06/05 04:02:13;;;;;;;;;;;;;;;13.35;53.91309;102463.1;;;;-67
2023/06/05 04:07:13;;;;;;;;;;;;;;;13.37;53.41113;102467.6;;;;-69
2023/06/05 04:07:48;;;;;;;0.2;0.1;;;;;;;;;;;;;-68
2023/06/05 04:12:14;;;;;;;;;;;;;;;13.38;53.90527;102464.5;;;;-67
2023/06/05 04:17:14;;;;;;;;;;;;;;;13.4;53.59277;102472;;;;-68
2023/06/05 04:22:13;;;;;;;;;;;;;;;13.4;54.03223;102467;;;;-68
2023/06/05 04:27:14;;;;;;;;;;;;;;;13.47;53.91699;102471.4;;;;-68
2023/06/05 04:32:16;;;;;;;;;;;;;;;13.5;54.22266;102471.1;;;;-67
2023/06/05 04:37:16;;;;;;;;;;;;;;;13.53;53.90234;102474.5;;;;-70
2023/06/05 04:37:47;;;;;;;0.2;0;;;;;;;;;;;;;-70
2023/06/05 04:42:14;;;;;;;;;;;;;;;13.58;53.80566;102472.5;;;;-68
2023/06/05 04:47:13;;;;;;;;;;;;;;;13.62;53.7334;102478.4;;;;-68
2023/06/05 04:52:14;;;;;;;;;;;;;;;13.68;53.81934;102479.5;;;;-67
2023/06/05 04:57:16;;;;;;;;;;;;;;;13.75;53.7041;102477.1;;;;-69
2023/06/05 05:02:13;;;;;;;;;;;;;;;13.81;53.52148;102480.4;;;;-67
2023/06/05 05:07:15;;;;;;;;;;;;;;;13.86;53.78613;102479.8;;;;-68
2023/06/05 05:07:52;;;;;;;0.2;0.1;;;;;;;;;;;;;-68
2023/06/05 05:12:13;;;;;;;;;;;;;;;13.94;53.48145;102488.2;;;;-68
2023/06/05 05:17:14;;;;;;;;;;;;;;;14;53.63281;102494.7;;;;-70
2023/06/05 05:22:13;;;;;;;;;;;;;;;14.09;53.78027;102490.2;;;;-69
2023/06/05 05:27:13;;;;;;;;;;;;;;;14.22;53.69434;102484.6;;;;-68
2023/06/05 05:32:14;;;;;;;;;;;;;;;14.29;53.3877;102479.8;;;;-67
2023/06/05 05:37:14;;;;;;;;;;;;;;;14.38;53.3877;102480;;;;-68
2023/06/05 05:37:50;;;;;;;0.2;0;;;;;;;;;;;;;-68
2023/06/05 05:42:13;;;;;;;;;;;;;;;14.48;53.68066;102477;;;;-68
2023/06/05 05:47:13;;;;;;;;;;;;;;;14.57;53.54492;102482.5;;;;-68
2023/06/05 05:52:13;;;;;;;;;;;;;;;14.65;53.28516;102482;;;;-68
2023/06/05 05:57:13;;;;;;;;;;;;;;;14.75;53.35352;102475.6;;;;-69
2023/06/05 06:02:13;;;;;;;;;;;;;;;14.92;53.21582;102482.4;;;;-70
2023/06/05 06:07:13;;;;;;;;;;;;;;;15.12;53.6582;102480.8;;;;-69
2023/06/05 06:07:52;;;;;;;0.2;0.1;;;;;;;;;;;;;-70
2023/06/05 06:12:15;;;;;;;;;;;;;;;15.33;53.05273;102488.2;;;;-68
2023/06/05 06:17:13;;;;;;;;;;;;;;;15.52;52.67871;102492.7;;;;-68
2023/06/05 06:22:15;;;;;;;;;;;;;;;15.76;52.29004;102489.2;;;;-68
2023/06/05 06:27:14;;;;;;;;;;;;;;;15.88;52.30469;102488.9;;;;-68
2023/06/05 06:32:14;;;;;;;;;;;;;;;15.96;52.41602;102492.3;;;;-70
2023/06/05 06:37:14;;;;;;;;;;;;;;;16.09;52.28418;102496.2;;;;-68
2023/06/05 06:37:57;;;;;;;0.2;0;;;;;;;;;;;;;-69
2023/06/05 06:42:14;;;;;;;;;;;;;;;16.28;52.00195;102500.2;;;;-68
2023/06/05 06:47:13;;;;;;;;;;;;;;;16.43;51.98535;102496.4;;;;-69
2023/06/05 06:52:13;;;;;;;;;;;;;;;16.58;51.12012;102492;;;;-67
2023/06/05 06:57:14;;;;;;;;;;;;;;;16.87;50.97266;102492;;;;-68
2023/06/05 07:02:17;;;;;;;;;;;;;;;17.11;50.5127;102500.1;;;;-67
2023/06/05 07:07:14;;;;;;;;;;;;;;;17.22;50.31055;102490.3;;;;-68
2023/06/05 07:08:00;;;;;;;0.2;0.1;;;;;;;;;;;;;-68
2023/06/05 07:12:15;;;;;;;;;;;;;;;17.55;49.87109;102499.1;;;;-68
2023/06/05 07:17:13;;;;;;;;;;;;;;;17.82;49.19824;102503;;;;-69
2023/06/05 07:22:13;;;;;;;;;;;;;;;18;48.72949;102499;;;;-69
2023/06/05 07:27:14;;;;;;;;;;;;;;;18.22;48.64063;102506.1;;;;-68
2023/06/05 07:32:13;;;;;;;;;;;;;;;18.58;47.81543;102506.1;;;;-69
2023/06/05 07:37:14;;;;;;;;;;;;;;;19.02;47.28223;102503.2;;;;-72
2023/06/05 07:37:59;;;;;;;0.2;0;;;;;;;;;;;;;-69
2023/06/05 07:42:13;;;;;;;;;;;;;;;19.51;46.70605;102507.5;;;;-68
2023/06/05 07:47:15;;;;;;;;;;;;;;;19.86;45.54395;102501;;;;-69
2023/06/05 07:52:13;;;;;;;;;;;;;;;20.03;45.58496;102499;;;;-68
2023/06/05 07:57:14;;;;;;;;;;;;;;;20.46;45.04492;102499.7;;;;-69
2023/06/05 08:02:16;;;;;;;;;;;;;;;20.87;44.61816;102497.7;;;;-69
2023/06/05 08:07:13;;;;;;;;;;;;;;;20.92;43.85547;102504;;;;-69
2023/06/05 08:08:01;;;;;;;0.2;0;;;;;;;;;;;;;-68
2023/06/05 08:12:13;;;;;;;;;;;;;;;20.65;44.24121;102509.2;;;;-69
2023/06/05 08:17:15;;;;;;;;;;;;;;;20.59;44.6582;102505.4;;;;-72
2023/06/05 08:22:14;;;;;;;;;;;;;;;20.84;44.43164;102501.4;;;;-69
2023/06/05 08:27:14;;;;;;;;;;;;;;;21;43.97754;102498.2;;;;-68
2023/06/05 08:32:14;;;;;;;;;;;;;;;21.33;43.95313;102496.8;;;;-69
2023/06/05 08:37:14;;;;;;;;;;;;;;;21.82;43.27832;102492.1;;;;-69
2023/06/05 08:38:03;;;;;;;0.2;0.1;;;;;;;;;;;;;-70
2023/06/05 08:42:18;;;;;;;;;;;;;;;22.16;42.49609;102494.9;;;;-68
2023/06/05 08:47:13;;;;;;;;;;;;;;;22.29;42.29004;102490.6;;;;-69
2023/06/05 08:52:15;;;;;;;;;;;;;;;22.6;41.87012;102492.1;;;;-68
2023/06/05 08:57:13;;;;;;;;;;;;;;;22.89;41.46094;102482;;;;-69
2023/06/05 09:02:13;;;;;;;;;;;;;;;23.08;41.0752;102487.1;;;;-67
2023/06/05 09:07:15;;;;;;;;;;;;;;;23.32;41.02734;102484.4;;;;-69
2023/06/05 09:08:07;;;;;;;0.2;0.1;;;;;;;;;;;;;-68
2023/06/05 09:12:14;;;;;;;;;;;;;;;23.52;40.66504;102483.7;;;;-70
2023/06/05 09:17:16;;;;;;;;;;;;;;;23.72;40.2334;102472;;;;-69
2023/06/05 09:22:16;;;;;;;;;;;;;;;23.96;39.91992;102468;;;;-68
2023/06/05 09:27:14;;;;;;;;;;;;;;;24.16;39.69531;102469.2;;;;-69
2023/06/05 09:32:20;;;;;;;;;;;;;;;24.45;39.40918;102468.8;;;;-68
2023/06/05 09:37:22;;;;;;;;;;;;;;;24.76;38.9043;102469.2;;;;-69
2023/06/05 09:38:20;;;;;;;0.2;0.1;;;;;;;;;;;;;-69
2023/06/05 09:42:15;;;;;;;;;;;;;;;25.05;38.62891;102475.2;;;;-68
2023/06/05 09:47:17;;;;;;;;;;;;;;;25.34;38.19043;102474;;;;-68
2023/06/05 09:52:16;;;;;;;;;;;;;;;25.52;37.97266;102474.9;;;;-69
2023/06/05 09:57:14;;;;;;;;;;;;;;;25.67;38.02051;102468.4;;;;-69
2023/06/05 10:02:16;;;;;;;;;;;;;;;25.81;37.6377;102462.5;;;;-69
2023/06/05 10:07:13;;;;;;;;;;;;;;;25.99;37.27051;102459.1;;;;-67
2023/06/05 10:08:17;;;;;;;0.2;0;;;;;;;;;;;;;-68
2023/06/05 10:12:14;;;;;;;;;;;;;;;26.16;37.15625;102453.5;;;;-68
2023/06/05 10:17:17;;;;;;;;;;;;;;;26.35;36.84766;102449.2;;;;-70
2023/06/05 10:22:14;;;;;;;;;;;;;;;26.47;36.4043;102447.7;;;;-68
2023/06/05 10:27:29;;;;;;;;;;;;;;;26.6;36.04199;102450.7;;;;-69
2023/06/05 10:32:18;;;;;;;;;;;;;;;26.84;36.02637;102445.5;;;;-69
2023/06/05 10:37:37;;;;;;;;;;;;;;;27.03;35.7041;102450.4;;;;-67
2023/06/05 10:38:22;;;;;;;0.2;0;;;;;;;;;;;;;-68
2023/06/05 10:42:13;;;;;;;;;;;;;;;27.22;35.67285;102448.1;;;;-69
2023/06/05 10:47:25;;;;;;;;;;;;;;;27.33;35.55273;102439;;;;-67
2023/06/05 10:52:23;;;;;;;;;;;;;;;27.42;35.38574;102442;;;;-69
2023/06/05 10:57:13;;;;;;;;;;;;;;;27.6;36.43652;102444.3;;;;-69
2023/06/05 11:02:25;;;;;;;;;;;;;;;27.71;35.76953;102442.4;;;;-70
2023/06/05 11:07:24;;;;;;;;;;;;;;;27.77;35.7627;102432.3;;;;-68
2023/06/05 11:08:23;;;;;;;0.2;0;;;;;;;;;;;;;-69
2023/06/05 11:12:14;;;;;;;;;;;;;;;27.84;36.56055;102435.1;;;;-69
2023/06/05 11:17:24;;;;;;;;;;;;;;;27.93;35.41406;102433.8;;;;-70
2023/06/05 11:22:14;;;;;;;;;;;;;;;28;35.53516;102430.5;;;;-68
2023/06/05 11:27:26;;;;;;;;;;;;;;;28.16;35.89844;102420.7;;;;-68
2023/06/05 11:32:25;;;;;;;;;;;;;;;28.31;35.74707;102429.6;;;;-71
2023/06/05 11:37:23;;;;;;;;;;;;;;;28.39;35.99902;102419.9;;;;-68
2023/06/05 11:38:28;;;;;;;0.2;0;;;;;;;;;;;;;-68
2023/06/05 11:42:13;;;;;;;;;;;;;;;28.56;35.23047;102425.2;;;;-70
2023/06/05 11:47:24;;;;;;;;;;;;;;;28.71;34.92578;102419.8;;;;-69
2023/06/05 11:52:22;;;;;;;;;;;;;;;28.88;34.54199;102414.2;;;;-68
2023/06/05 11:57:13;;;;;;;;;;;;;;;28.95;34.70996;102413.6;;;;-68
2023/06/05 12:02:13;;;;;;;;;;;;;;;29.18;34.76367;102415.5;;;;-70
2023/06/05 12:07:13;;;;;;;;;;;;;;;29.22;34.61426;102407.7;;;;-69
2023/06/05 12:08:34;;;;;;;0.2;0;;;;;;;;;;;;;-68
2023/06/05 12:12:14;;;;;;;;;;;;;;;29.32;34.89063;102406.4;;;;-69
2023/06/05 12:17:16;;;;;;;;;;;;;;;29.4;35.00195;102401.2;;;;-68
2023/06/05 12:22:13;;;;;;;;;;;;;;;29.54;34.26367;102400.4;;;;-69
2023/06/05 12:27:14;;;;;;;;;;;;;;;29.61;35.27637;102400.5;;;;-68
2023/06/05 12:32:26;;;;;;;;;;;;;;;29.77;34.99512;102395.4;;;;-68
2023/06/05 12:37:13;;;;;;;;;;;;;;;29.86;34.2998;102386.3;;;;-69
2023/06/05 12:38:40;;;;;;;0.7;0.4;;;;;;;;;;;;;-69
2023/06/05 12:42:14;;;;;;;;;;;;;;;30.03;34.3125;102386.8;;;;-70
2023/06/05 12:47:14;;;;;;;;;;;;;;;30.11;35.16309;102385.5;;;;-70
2023/06/05 12:52:15;;;;;;;;;;;;;;;30.16;34.42871;102382.1;;;;-69
2023/06/05 12:57:14;;;;;;;;;;;;;;;30.26;35.32715;102385.5;;;;-69
2023/06/05 13:02:13;;;;;;;;;;;;;;;30.29;34.70703;102382.8;;;;-68
2023/06/05 13:07:16;;;;;;;;;;;;;;;30.25;34.45898;102373.1;;;;-68
2023/06/05 13:08:43;;;;;;;0.2;0.1;;;;;;;;;;;;;-71
2023/06/05 13:12:15;;;;;;;;;;;;;;;30.41;34.55176;102379.5;;;;-72
2023/06/05 13:17:13;;;;;;;;;;;;;;;30.47;34.55664;102374.3;;;;-69
2023/06/05 13:22:14;;;;;;;;;;;;;;;30.53;34.59668;102368.8;;;;-69
2023/06/05 13:27:14;;;;;;;;;;;;;;;30.63;33.7832;102360.3;;;;-69
2023/06/05 13:32:13;;;;;;;;;;;;;;;30.67;34.05566;102351;;;;-68
2023/06/05 13:37:13;;;;;;;;;;;;;;;30.73;34.54199;102343;;;;-68
2023/06/05 13:38:48;;;;;;;0.2;0;;;;;;;;;;;;;-68
2023/06/05 13:42:14;;;;;;;;;;;;;;;30.75;34.39063;102344.4;;;;-68
2023/06/05 13:47:13;;;;;;;;;;;;;;;30.72;33.83594;102337.6;;;;-69
2023/06/05 13:52:14;;;;;;;;;;;;;;;30.72;33.70801;102341;;;;-68
2023/06/05 13:57:15;;;;;;;;;;;;;;;30.72;32.60352;102341.2;;;;-69
2023/06/05 14:02:14;;;;;;;;;;;;;;;30.66;33.10449;102346.1;;;;-69
2023/06/05 14:07:14;;;;;;;;;;;;;;;30.57;33.80176;102338.4;;;;-69
2023/06/05 14:08:57;;;;;;;0.2;0;;;;;;;;;;;;;-68
2023/06/05 14:12:14;;;;;;;;;;;;;;;30.52;33.08203;102334.2;;;;-69
2023/06/05 14:17:14;;;;;;;;;;;;;;;30.39;33.60059;102330.2;;;;-70
2023/06/05 14:22:13;;;;;;;;;;;;;;;30.43;32.06543;102325.5;;;;-68
2023/06/05 14:27:15;;;;;;;;;;;;;;;30.32;32.52734;102328;;;;-69
2023/06/05 14:32:14;;;;;;;;;;;;;;;30.28;32.75977;102320.4;;;;-69
2023/06/05 14:37:14;;;;;;;;;;;;;;;30.25;32.67578;102322.3;;;;-70
2023/06/05 14:38:59;;;;;;;0.2;0;;;;;;;;;;;;;-69
2023/06/05 14:42:14;;;;;;;;;;;;;;;30.27;32.61816;102323.8;;;;-67
2023/06/05 14:47:14;;;;;;;;;;;;;;;30.11;33.39258;102315.5;;;;-68
2023/06/05 14:52:13;;;;;;;;;;;;;;;29.93;33.05078;102315.7;;;;-68
2023/06/05 14:57:14;;;;;;;;;;;;;;;29.82;33.04297;102314;;;;-68
2023/06/05 15:02:14;;;;;;;;;;;;;;;29.8;32.99414;102313.7;;;;-68
2023/06/05 15:07:13;;;;;;;;;;;;;;;29.58;33.03711;102308;;;;-69
2023/06/05 15:09:05;;;;;;;0.2;0;;;;;;;;;;;;;-67
2023/06/05 15:12:14;;;;;;;;;;;;;;;29.5;33.21875;102305.3;;;;-67
2023/06/05 15:17:17;;;;;;;;;;;;;;;29.37;33.16211;102305.3;;;;-70
2023/06/05 15:22:13;;;;;;;;;;;;;;;29.2;33.24414;102306.8;;;;-68
2023/06/05 15:27:13;;;;;;;;;;;;;;;29.14;33.16895;102299.2;;;;-67
2023/06/05 15:32:14;;;;;;;;;;;;;;;29.04;33.29004;102295;;;;-69
2023/06/05 15:37:13;;;;;;;;;;;;;;;28.89;33.93359;102286.4;;;;-70
2023/06/05 15:39:12;;;;;;;0.1;0;;;;;;;;;;;;;-70
2023/06/05 15:42:14;;;;;;;;;;;;;;;28.75;33.58496;102291.4;;;;-69
2023/06/05 15:47:14;;;;;;;;;;;;;;;28.56;33.54688;102295.8;;;;-69
2023/06/05 15:52:14;;;;;;;;;;;;;;;28.4;34.29395;102295.5;;;;-69
2023/06/05 15:57:13;;;;;;;;;;;;;;;28.24;34.58594;102304.2;;;;-68
2023/06/05 16:02:14;;;;;;;;;;;;;;;28.08;34.80762;102305.5;;;;-68
2023/06/05 16:07:14;;;;;;;;;;;;;;;28;34.5791;102300;;;;-69
2023/06/05 16:09:15;;;;;;;0.2;0;;;;;;;;;;;;;-69
2023/06/05 16:12:13;;;;;;;;;;;;;;;27.77;34.53906;102292.2;;;;-68
2023/06/05 16:17:14;;;;;;;;;;;;;;;27.66;35.48535;102284.7;;;;-68
2023/06/05 16:22:17;;;;;;;;;;;;;;;27.42;35.31543;102282.5;;;;-69
2023/06/05 16:27:13;;;;;;;;;;;;;;;27.27;35.54785;102284.3;;;;-67
2023/06/05 16:32:14;;;;;;;;;;;;;;;27.1;35.74414;102287.4;;;;-69
2023/06/05 16:37:13;;;;;;;;;;;;;;;26.88;35.87793;102277.6;;;;-67
2023/06/05 16:39:21;;;;;;;0.2;0.1;;;;;;;;;;;;;-70
2023/06/05 16:42:14;;;;;;;;;;;;;;;26.63;35.47461;102273;;;;-69
2023/06/05 16:47:13;;;;;;;;;;;;;;;26.4;36.17676;102271.7;;;;-69
2023/06/05 16:52:13;;;;;;;;;;;;;;;26.17;36.30957;102271.9;;;;-68
2023/06/05 16:57:13;;;;;;;;;;;;;;;26;36.44727;102271.8;;;;-70
2023/06/05 17:02:13;;;;;;;;;;;;;;;25.78;36.15039;102274.5;;;;-68
2023/06/05 17:07:13;;;;;;;;;;;;;;;25.58;36.7959;102277;;;;-69
2023/06/05 17:09:25;;;;;;;0.2;0.1;;;;;;;;;;;;;-68
2023/06/05 17:12:13;;;;;;;;;;;;;;;25.4;36.73535;102276.6;;;;-68
2023/06/05 17:17:16;;;;;;;;;;;;;;;25.22;37.18262;102269.6;;;;-68
2023/06/05 17:22:13;;;;;;;;;;;;;;;25.06;37.35449;102271.2;;;;-71
2023/06/05 17:27:18;;;;;;;;;;;;;;;24.78;37.43652;102269.4;;;;-69
2023/06/05 17:32:14;;;;;;;;;;;;;;;24.53;37.66992;102269;;;;-68
2023/06/05 17:37:13;;;;;;;;;;;;;;;24.31;37.77832;102272.6;;;;-68
2023/06/05 17:39:29;;;;;;;0.4;0.1;;;;;;;;;;;;;-68
2023/06/05 17:42:14;;;;;;;;;;;;;;;24.05;38.08008;102267.9;;;;-73
2023/06/05 17:47:16;;;;;;;;;;;;;;;23.88;38.34277;102268.4;;;;-72
2023/06/05 17:52:15;;;;;;;;;;;;;;;23.6;38.79297;102268.2;;;;-72
2023/06/05 17:57:13;;;;;;;;;;;;;;;23.45;38.95215;102267.7;;;;-72
2023/06/05 18:02:15;;;;;;;;;;;;;;;23.27;39.0752;102269.7;;;;-72
2023/06/05 18:07:16;;;;;;;;;;;;;;;23.01;38.9834;102274.8;;;;-72
2023/06/05 18:09:33;;;;;;;0.2;0;;;;;;;;;;;;;-72
2023/06/05 18:12:14;;;;;;;;;;;;;;;22.85;39.61426;102272.4;;;;-73
2023/06/05 18:17:15;;;;;;;;;;;;;;;22.75;39.31738;102274.3;;;;-72
2023/06/05 18:22:16;;;;;;;;;;;;;;;22.59;40.02832;102279.3;;;;-71
2023/06/05 18:27:18;;;;;;;;;;;;;;;22.32;39.91211;102279.3;;;;-72
2023/06/05 18:32:14;;;;;;;;;;;;;;;22.17;40.01367;102281.1;;;;-72
2023/06/05 18:37:17;;;;;;;;;;;;;;;22;39.46973;102282.7;;;;-73
2023/06/05 18:39:39;;;;;;;0.2;0;;;;;;;;;;;;;-72
2023/06/05 18:42:17;;;;;;;;;;;;;;;21.79;40.61133;102281.5;;;;-73
2023/06/05 18:47:14;;;;;;;;;;;;;;;21.61;40.66504;102281.8;;;;-73
2023/06/05 18:52:13;;;;;;;;;;;;;;;21.43;40.00586;102286;;;;-72
2023/06/05 18:57:14;;;;;;;;;;;;;;;21.14;40.28809;102282.8;;;;-72
2023/06/05 19:02:13;;;;;;;;;;;;;;;20.89;39.76172;102279.3;;;;-71
2023/06/05 19:07:16;;;;;;;;;;;;;;;20.66;40.07324;102279.4;;;;-72
2023/06/05 19:09:40;;;;;;;0.2;0;;;;;;;;;;;;;-71
2023/06/05 19:12:14;;;;;;;;;;;;;;;20.4;40.71387;102281.1;;;;-68
2023/06/05 19:17:16;;;;;;;;;;;;;;;20.17;40.5332;102288.8;;;;-69
2023/06/05 19:22:13;;;;;;;;;;;;;;;19.89;40.88379;102292.7;;;;-69
2023/06/05 19:27:13;;;;;;;;;;;;;;;19.63;41.24902;102292.3;;;;-69
2023/06/05 19:32:13;;;;;;;;;;;;;;;19.39;41.70605;102293.4;;;;-68
2023/06/05 19:37:13;;;;;;;;;;;;;;;19.18;41.70996;102296.7;;;;-69
2023/06/05 19:39:43;;;;;;;0.2;0.1;;;;;;;;;;;;;-69
2023/06/05 19:42:14;;;;;;;;;;;;;;;18.96;42.21387;102298.8;;;;-68
2023/06/05 19:47:14;;;;;;;;;;;;;;;18.72;42.1123;102300.7;;;;-69
2023/06/05 19:52:14;;;;;;;;;;;;;;;18.51;42.52441;102312.5;;;;-69
2023/06/05 19:57:13;;;;;;;;;;;;;;;18.29;42.70898;102315.8;;;;-70
2023/06/05 20:02:14;;;;;;;;;;;;;;;18.09;42.79102;102318.2;;;;-71
2023/06/05 20:07:13;;;;;;;;;;;;;;;17.89;43.0791;102322.4;;;;-69
2023/06/05 20:09:46;;;;;;;0.2;0.1;;;;;;;;;;;;;-69
2023/06/05 20:12:14;;;;;;;;;;;;;;;17.7;43.73242;102327.3;;;;-69
2023/06/05 20:17:13;;;;;;;;;;;;;;;17.56;43.68359;102331.4;;;;-69
2023/06/05 20:22:16;;;;;;;;;;;;;;;17.37;43.76758;102331.9;;;;-67
2023/06/05 20:27:14;;;;;;;;;;;;;;;17.18;44.31738;102329.9;;;;-68
2023/06/05 20:32:14;;;;;;;;;;;;;;;17.03;44.44824;102329.1;;;;-69
2023/06/05 20:37:15;;;;;;;;;;;;;;;16.88;44.55957;102324.9;;;;-69
2023/06/05 20:39:49;;;;;;;0.2;0;;;;;;;;;;;;;-68
2023/06/05 20:42:14;;;;;;;;;;;;;;;16.71;45.3584;102323;;;;-68
2023/06/05 20:47:16;;;;;;;;;;;;;;;16.56;45.27441;102323.8;;;;-68
2023/06/05 20:52:14;;;;;;;;;;;;;;;16.42;45.86133;102323.8;;;;-70
2023/06/05 20:57:17;;;;;;;;;;;;;;;16.27;45.88965;102324.9;;;;-69
2023/06/05 21:02:15;;;;;;;;;;;;;;;16.14;46.1377;102324.9;;;;-68
2023/06/05 21:07:13;;;;;;;;;;;;;;;16.02;46.3623;102326.3;;;;-69
2023/06/05 21:09:51;;;;;;;0.2;0.1;;;;;;;;;;;;;-68
2023/06/05 21:12:14;;;;;;;;;;;;;;;15.89;46.17871;102330.5;;;;-70
2023/06/05 21:17:13;;;;;;;;;;;;;;;15.82;46.38574;102330.9;;;;-69
2023/06/05 21:22:13;;;;;;;;;;;;;;;15.61;46.95313;102333.1;;;;-68
2023/06/05 21:27:13;;;;;;;;;;;;;;;15.5;46.85059;102337.5;;;;-69
2023/06/05 21:32:13;;;;;;;;;;;;;;;15.41;47.04395;102336.1;;;;-68
2023/06/05 21:37:15;;;;;;;;;;;;;;;15.3;47.20215;102340.2;;;;-69
2023/06/05 21:39:53;;;;;;;0.2;0.1;;;;;;;;;;;;;-70
2023/06/05 21:42:16;;;;;;;;;;;;;;;15.2;46.99805;102343;;;;-70
2023/06/05 21:47:14;;;;;;;;;;;;;;;15.06;47.21094;102339.1;;;;-68
2023/06/05 21:52:15;;;;;;;;;;;;;;;14.95;47.28906;102340.8;;;;-69
2023/06/05 21:57:13;;;;;;;;;;;;;;;14.89;47.92578;102340.2;;;;-67
2023/06/05 22:02:13;;;;;;;;;;;;;;;14.82;47.55566;102342.8;;;;-67
2023/06/05 22:07:13;;;;;;;;;;;;;;;14.73;47.6709;102345.4;;;;-67
2023/06/05 22:09:54;;;;;;;0.2;0.1;;;;;;;;;;;;;-67
2023/06/05 22:12:17;;;;;;;;;;;;;;;14.65;47.79688;102343;;;;-68
2023/06/05 22:17:14;;;;;;;;;;;;;;;14.55;48.16992;102333.7;;;;-69
2023/06/05 22:22:13;;;;;;;;;;;;;;;14.48;48.13965;102338.2;;;;-68
2023/06/05 22:27:14;;;;;;;;;;;;;;;14.42;48.53906;102336.4;;;;-68
2023/06/05 22:32:14;;;;;;;;;;;;;;;14.35;48.98242;102339.8;;;;-67
2023/06/05 22:37:14;;;;;;;;;;;;;;;14.29;49.23438;102342.3;;;;-68
2023/06/05 22:39:56;;;;;;;0.2;0.1;;;;;;;;;;;;;-68
2023/06/05 22:42:13;;;;;;;;;;;;;;;14.26;49.49023;102345.6;;;;-70
2023/06/05 22:47:14;;;;;;;;;;;;;;;14.19;49.70703;102347.9;;;;-68
2023/06/05 22:52:14;;;;;;;;;;;;;;;14.12;49.53027;102353.8;;;;-68
2023/06/05 22:57:13;;;;;;;;;;;;;;;14.07;49.58105;102354.2;;;;-69
2023/06/05 23:02:13;;;;;;;;;;;;;;;14.03;49.86914;102352.7;;;;-68
2023/06/05 23:07:14;;;;;;;;;;;;;;;14;50.39355;102351.6;;;;-69
2023/06/05 23:09:57;;;;;;;0.2;0.1;;;;;;;;;;;;;-67
2023/06/05 23:12:13;;;;;;;;;;;;;;;13.95;50.20801;102351.5;;;;-69
2023/06/05 23:17:13;;;;;;;;;;;;;;;13.9;50.28223;102348.4;;;;-67
2023/06/05 23:22:13;;;;;;;;;;;;;;;13.86;50.5127;102350.8;;;;-70
2023/06/05 23:27:14;;;;;;;;;;;;;;;13.77;50.7168;102359.3;;;;-68
2023/06/05 23:32:13;;;;;;;;;;;;;;;13.76;50.65918;102360.5;;;;-69
2023/06/05 23:37:15;;;;;;;;;;;;;;;13.66;50.85059;102364.9;;;;-69
2023/06/05 23:39:59;;;;;;;0.2;0.1;;;;;;;;;;;;;-67
2023/06/05 23:42:18;;;;;;;;;;;;;;;13.65;50.75879;102357.5;;;;-69
2023/06/05 23:47:13;;;;;;;;;;;;;;;13.6;51.47266;102361.8;;;;-68
2023/06/05 23:52:14;;;;;;;;;;;;;;;13.54;51.32031;102361.1;;;;-69
2023/06/05 23:57:13;;;;;;;;;;;;;;;13.49;51.49414;102357.8;;;;-68
